Time;durP1;ratioP1;P1;durP2;ratioP2;P2;SDS_P1;SDS_P2;PMS_P1;PMS_P2;Temp;Humidity;BMP_temperature;BMP_pressure;BME280_temperature;BME280_humidity;BME280_pressure;Samples;Min_cycle;Max_cycle;Signal;HPM_P1;HPM_P2
2022/01/14 00:00:06;;;;;;;45.33;18.10;;;5.80;99.90;;;;;;5157275;27;20050;-77
2022/01/14 00:02:31;;;;;;;47.33;18.77;;;5.80;99.90;;;;;;5117069;27;20113;-78
2022/01/14 00:04:57;;;;;;;48.55;19.02;;;5.80;99.90;;;;;;5111975;27;20130;-78
2022/01/14 00:07:25;;;;;;;40.10;17.10;;;5.80;99.90;;;;;;5157115;27;20046;-77
2022/01/14 00:09:50;;;;;;;32.45;16.25;;;6.00;99.90;;;;;;5156129;27;20397;-77
2022/01/14 00:12:23;;;;;;;41.47;18.05;;;5.80;99.90;;;;;;5138731;27;20049;-77
2022/01/14 00:15:23;;;;;;;35.92;16.70;;;5.80;99.90;;;;;;5157148;27;20098;-77
2022/01/14 00:17:44;;;;;;;48.53;18.88;;;5.80;99.90;;;;;;5155137;27;20054;-77
2022/01/14 00:20:10;;;;;;;43.47;17.60;;;5.80;99.90;;;;;;5138132;27;20043;-77
2022/01/14 00:22:36;;;;;;;39.40;17.40;;;5.80;99.90;;;;;;5157246;27;20046;-77
2022/01/14 00:33:05;;;;;;;33.55;17.52;;;5.80;99.90;;;;;;5137758;27;20107;-77
2022/01/14 00:35:32;;;;;;;33.95;18.02;;;5.80;99.90;;;;;;5138050;27;20050;-77
2022/01/14 00:37:59;;;;;;;33.78;16.08;;;5.80;99.90;;;;;;5137247;27;20035;-77
2022/01/14 00:40:25;;;;;;;33.28;15.52;;;5.80;99.90;;;;;;5137613;27;20062;-77
2022/01/14 00:42:52;;;;;;;36.08;17.35;;;5.80;99.90;;;;;;5138242;27;20187;-77
2022/01/14 00:45:18;;;;;;;35.38;17.63;;;5.70;99.90;;;;;;5155766;27;20049;-77
2022/01/14 00:47:44;;;;;;;36.78;17.17;;;5.80;99.90;;;;;;5137356;27;20058;-77
2022/01/14 00:50:13;;;;;;;40.22;19.27;;;5.80;99.90;;;;;;5137720;27;20042;-77
2022/01/14 00:52:40;;;;;;;39.63;17.63;;;5.70;99.90;;;;;;5155452;27;20191;-77
2022/01/14 00:55:08;;;;;;;39.28;17.95;;;5.80;99.90;;;;;;5137899;27;20054;-77
2022/01/14 01:00:22;;;;;;;48.65;19.35;;;5.70;99.90;;;;;;5136788;27;20481;-77
2022/01/14 01:02:49;;;;;;;43.78;18.27;;;5.70;99.90;;;;;;5137151;27;20061;-77
2022/01/14 01:05:15;;;;;;;39.03;19.27;;;5.70;99.90;;;;;;5137199;27;20053;-77
2022/01/14 01:07:43;;;;;;;39.85;18.88;;;5.70;99.90;;;;;;5136819;27;20397;-77
2022/01/14 01:10:11;;;;;;;41.15;16.90;;;5.70;99.90;;;;;;5137236;27;20509;-77
2022/01/14 01:12:50;;;;;;;40.20;17.60;;;5.70;99.90;;;;;;5137627;27;20439;-77
2022/01/14 01:15:17;;;;;;;38.70;19.38;;;5.70;99.90;;;;;;5155982;27;20494;-77
2022/01/14 01:17:44;;;;;;;40.80;17.50;;;5.70;99.90;;;;;;5154756;27;20394;-77
2022/01/14 01:20:18;;;;;;;35.95;17.73;;;5.80;99.90;;;;;;5135895;27;20039;-77
2022/01/14 01:22:48;;;;;;;41.28;18.58;;;5.70;99.90;;;;;;5155933;27;20041;-77
2022/01/14 01:25:16;;;;;;;38.65;17.88;;;5.70;99.90;;;;;;5137493;27;20034;-77
2022/01/14 01:27:45;;;;;;;38.83;17.67;;;5.70;99.90;;;;;;5136476;27;20058;-77
2022/01/14 01:30:49;;;;;;;45.08;18.23;;;5.70;99.90;;;;;;5155524;27;20126;-77
2022/01/14 01:33:13;;;;;;;32.85;18.02;;;5.70;99.90;;;;;;5132958;27;20051;-77
2022/01/14 01:35:39;;;;;;;40.03;18.10;;;5.70;99.90;;;;;;5134060;27;20036;-77
2022/01/14 01:38:04;;;;;;;43.72;17.60;;;5.70;99.90;;;;;;5116659;27;20402;-77
2022/01/14 01:40:30;;;;;;;51.55;19.25;;;5.70;99.90;;;;;;5120187;27;20539;-77
2022/01/14 01:42:59;;;;;;;46.70;19.52;;;5.80;99.90;;;;;;5136467;27;20082;-78
2022/01/14 01:45:26;;;;;;;42.22;19.17;;;5.70;99.90;;;;;;5136831;27;20133;-77
2022/01/14 01:47:54;;;;;;;44.45;19.30;;;5.80;99.90;;;;;;5135656;27;20061;-77
2022/01/14 01:50:28;;;;;;;39.78;18.10;;;5.80;99.90;;;;;;5136666;27;20514;-77
2022/01/14 01:52:55;;;;;;;39.00;19.03;;;5.80;99.90;;;;;;5155438;27;20062;-77
2022/01/14 01:55:22;;;;;;;35.92;18.05;;;5.80;99.90;;;;;;5154546;27;20035;-77
2022/01/14 01:57:49;;;;;;;48.58;18.13;;;5.80;99.90;;;;;;5137072;27;20043;-77
2022/01/14 02:00:18;;;;;;;40.92;19.20;;;5.80;99.90;;;;;;5136516;27;20187;-77
2022/01/14 02:02:45;;;;;;;42.47;18.77;;;5.80;99.90;;;;;;5154072;27;20397;-78
2022/01/14 02:05:11;;;;;;;42.08;18.50;;;6.10;99.90;;;;;;5136470;27;20043;-77
2022/01/14 02:07:39;;;;;;;48.78;18.92;;;5.80;99.90;;;;;;5136920;27;20042;-77
2022/01/14 02:10:06;;;;;;;41.42;18.42;;;5.80;99.90;;;;;;5135835;27;20441;-77
2022/01/14 02:12:47;;;;;;;41.30;18.30;;;5.80;99.90;;;;;;5136872;27;20047;-77
2022/01/14 02:15:25;;;;;;;51.70;18.30;;;5.90;99.90;;;;;;5136826;27;20053;-78
2022/01/14 02:23:03;;;;;;;42.95;17.23;;;5.90;99.90;;;;;;5135749;27;20047;-77
2022/01/14 02:25:30;;;;;;;51.55;17.73;;;5.90;99.90;;;;;;5136289;27;20119;-77
2022/01/14 02:27:58;;;;;;;42.85;18.05;;;5.90;99.90;;;;;;5136476;27;20121;-77
2022/01/14 02:30:25;;;;;;;51.65;17.63;;;5.90;99.90;;;;;;5139551;27;20120;-78
2022/01/14 02:32:51;;;;;;;35.33;17.70;;;5.90;99.90;;;;;;5122966;27;20080;-78
2022/01/14 02:35:16;;;;;;;43.17;17.23;;;5.90;99.90;;;;;;5159004;27;20043;-77
2022/01/14 02:37:42;;;;;;;40.72;16.33;;;5.90;99.90;;;;;;5139498;27;20050;-78
2022/01/14 02:40:09;;;;;;;42.58;16.92;;;5.90;99.90;;;;;;5140286;27;20078;-78
2022/01/14 02:42:35;;;;;;;48.20;19.30;;;5.90;99.90;;;;;;5140599;27;20139;-77
2022/01/14 02:45:06;;;;;;;56.03;18.50;;;5.90;99.90;;;;;;5139045;27;20494;-77
2022/01/14 02:47:31;;;;;;;49.90;19.23;;;6.00;99.90;;;;;;5122621;27;20062;-77
2022/01/14 02:49:57;;;;;;;50.90;19.92;;;6.00;99.90;;;;;;5140113;27;20039;-77
2022/01/14 02:52:40;;;;;;;45.83;17.00;;;6.00;99.90;;;;;;5139474;27;20043;-77
2022/01/14 02:55:15;;;;;;;40.10;17.00;;;6.00;99.90;;;;;;5158791;27;20385;-78
2022/01/14 02:57:52;;;;;;;40.35;18.58;;;6.00;99.90;;;;;;5139937;27;20050;-77
2022/01/14 03:00:23;;;;;;;43.95;18.23;;;6.00;99.90;;;;;;5139475;27;20405;-77
2022/01/14 03:02:51;;;;;;;39.08;18.20;;;6.10;99.90;;;;;;5139904;27;20046;-77
2022/01/14 03:05:19;;;;;;;41.13;16.73;;;6.00;99.90;;;;;;5139037;27;20094;-77
2022/01/14 03:07:45;;;;;;;34.15;15.82;;;6.00;99.90;;;;;;5140178;27;20043;-77
2022/01/14 03:10:14;;;;;;;38.83;16.90;;;6.10;99.90;;;;;;5158282;27;20047;-77
2022/01/14 03:12:41;;;;;;;49.72;17.38;;;6.10;99.90;;;;;;5121795;27;20042;-78
2022/01/14 03:15:08;;;;;;;37.95;15.77;;;6.10;99.90;;;;;;5139424;27;20061;-77
2022/01/14 03:17:34;;;;;;;33.35;16.98;;;6.10;99.90;;;;;;5139597;27;20062;-77
2022/01/14 03:20:01;;;;;;;39.05;15.38;;;6.10;99.90;;;;;;5138945;27;20194;-77
2022/01/14 03:22:33;;;;;;;38.30;18.13;;;6.20;99.90;;;;;;5139591;27;20039;-77
2022/01/14 03:27:43;;;;;;;38.90;17.90;;;6.20;99.90;;;;;;5157304;27;20050;-77
2022/01/14 03:30:09;;;;;;;40.00;16.83;;;6.20;99.90;;;;;;5140217;27;20053;-77
2022/01/14 03:32:35;;;;;;;36.67;17.25;;;6.20;99.90;;;;;;5138981;27;20047;-77
2022/01/14 03:35:01;;;;;;;32.05;15.48;;;6.20;99.90;;;;;;5138340;27;20134;-77
2022/01/14 03:37:27;;;;;;;46.00;18.80;;;6.20;99.90;;;;;;5139389;27;20063;-78
2022/01/14 03:39:52;;;;;;;38.70;17.95;;;6.20;99.90;;;;;;5138606;27;20061;-77
2022/01/14 03:42:18;;;;;;;39.35;16.85;;;6.30;99.90;;;;;;5138205;27;20046;-78
2022/01/14 03:44:44;;;;;;;39.08;17.33;;;6.20;99.90;;;;;;5139029;27;20383;-77
2022/01/14 03:47:09;;;;;;;35.55;16.48;;;6.20;99.90;;;;;;5120214;27;20062;-78
2022/01/14 03:49:35;;;;;;;43.05;16.65;;;6.20;99.90;;;;;;5138108;27;20051;-77
2022/01/14 03:52:01;;;;;;;36.25;18.02;;;6.20;99.90;;;;;;5139228;27;20117;-78
2022/01/14 03:54:26;;;;;;;39.83;18.52;;;6.20;99.90;;;;;;5138061;27;20140;-78
2022/01/14 03:56:52;;;;;;;40.53;18.80;;;6.20;99.90;;;;;;5138819;27;20046;-78
2022/01/14 03:59:18;;;;;;;39.13;18.05;;;6.20;99.90;;;;;;5139038;27;20050;-78
2022/01/14 04:01:44;;;;;;;38.20;18.23;;;6.20;99.90;;;;;;5137905;27;20571;-78
2022/01/14 04:04:09;;;;;;;51.65;20.63;;;6.20;99.90;;;;;;5138402;27;20042;-78
2022/01/14 04:06:35;;;;;;;36.72;16.73;;;6.10;99.90;;;;;;5138663;27;20058;-77
2022/01/14 04:09:01;;;;;;;48.03;18.88;;;6.20;99.90;;;;;;5138051;27;20042;-78
2022/01/14 04:11:29;;;;;;;36.17;17.23;;;6.10;99.90;;;;;;5138410;27;20089;-78
2022/01/14 04:14:06;;;;;;;43.55;19.35;;;6.00;99.90;;;;;;5138735;27;20039;-78
2022/01/14 04:16:31;;;;;;;43.15;20.55;;;6.10;99.90;;;;;;5137622;27;20493;-77
2022/01/14 04:18:57;;;;;;;43.53;19.15;;;6.10;99.90;;;;;;5137972;27;20035;-78
2022/01/14 04:21:23;;;;;;;48.55;18.95;;;6.00;99.90;;;;;;5121341;27;20039;-77
2022/01/14 04:23:49;;;;;;;38.53;18.38;;;6.00;99.90;;;;;;5137496;27;20046;-78
2022/01/14 04:26:15;;;;;;;35.88;17.65;;;6.00;99.90;;;;;;5117537;27;20043;-78
2022/01/14 04:28:40;;;;;;;40.80;19.25;;;6.00;99.90;;;;;;5117917;27;20062;-78
2022/01/14 04:31:09;;;;;;;38.53;19.02;;;6.00;99.90;;;;;;5116802;27;20485;-78
2022/01/14 04:33:35;;;;;;;46.90;18.63;;;6.00;99.90;;;;;;5133574;27;20103;-78
2022/01/14 04:36:03;;;;;;;48.88;21.95;;;5.90;99.90;;;;;;5138307;27;20167;-78
2022/01/14 04:38:31;;;;;;;40.00;19.15;;;5.90;99.90;;;;;;5137140;27;20477;-78
2022/01/14 04:40:57;;;;;;;48.58;21.13;;;5.90;99.90;;;;;;5137968;27;20544;-78
2022/01/14 04:43:23;;;;;;;44.55;19.08;;;5.90;99.90;;;;;;5138095;27;20051;-78
2022/01/14 04:48:26;;;;;;;45.97;19.65;;;5.90;99.90;;;;;;5137559;27;20054;-77
2022/01/14 04:50:53;;;;;;;41.65;20.08;;;5.90;99.90;;;;;;5136988;27;20047;-78
2022/01/14 04:53:20;;;;;;;50.42;19.63;;;5.90;99.90;;;;;;5156269;27;20130;-78
2022/01/14 04:55:46;;;;;;;40.80;19.52;;;5.80;99.90;;;;;;5137647;27;20042;-78
2022/01/14 04:58:12;;;;;;;40.45;19.63;;;5.80;99.90;;;;;;5136808;27;20454;-77
2022/01/14 05:00:39;;;;;;;40.63;20.20;;;5.80;99.90;;;;;;5137641;27;20088;-78
2022/01/14 05:03:05;;;;;;;50.25;20.70;;;5.80;99.90;;;;;;5137411;27;20050;-78
2022/01/14 05:05:34;;;;;;;45.53;20.67;;;5.80;99.90;;;;;;5136371;27;20047;-78
2022/01/14 05:08:00;;;;;;;46.75;19.05;;;5.70;99.90;;;;;;5156071;27;20447;-78
2022/01/14 05:12:54;;;;;;;41.05;19.70;;;5.70;99.90;;;;;;5155038;27;20043;-77
2022/01/14 05:15:20;;;;;;;44.72;21.35;;;5.70;99.90;;;;;;5155943;27;20099;-77
2022/01/14 05:17:47;;;;;;;50.20;20.90;;;5.70;99.90;;;;;;5137308;27;20095;-77
2022/01/14 05:20:14;;;;;;;49.63;20.83;;;5.90;99.90;;;;;;5155097;27;20116;-77
2022/01/14 05:22:40;;;;;;;41.25;19.40;;;5.70;99.90;;;;;;5155750;27;20050;-78
2022/01/14 05:25:07;;;;;;;39.25;19.48;;;5.70;99.90;;;;;;5155847;27;20047;-77
2022/01/14 05:27:37;;;;;;;37.05;20.13;;;5.70;99.90;;;;;;5119513;27;20057;-77
2022/01/14 05:30:08;;;;;;;47.15;20.52;;;5.70;99.90;;;;;;5137062;27;20043;-78
2022/01/14 05:32:34;;;;;;;38.63;18.75;;;5.70;99.90;;;;;;5136774;27;20055;-78
2022/01/14 05:35:01;;;;;;;41.58;19.90;;;5.70;99.90;;;;;;5136428;27;20438;-77
2022/01/14 05:37:27;;;;;;;40.65;19.48;;;5.70;99.90;;;;;;5136902;27;20078;-78
2022/01/14 05:39:52;;;;;;;40.10;19.50;;;5.70;99.90;;;;;;5136863;27;20084;-78
2022/01/14 05:42:19;;;;;;;42.60;19.13;;;5.70;99.90;;;;;;5136981;27;20474;-77
2022/01/14 05:44:45;;;;;;;41.50;19.60;;;5.70;99.90;;;;;;5155467;27;20043;-77
2022/01/14 05:47:10;;;;;;;40.30;18.52;;;5.70;99.90;;;;;;5153987;27;20053;-78
2022/01/14 05:49:36;;;;;;;36.22;19.52;;;5.70;99.90;;;;;;5136853;27;20133;-77
2022/01/14 05:52:02;;;;;;;41.85;19.00;;;5.80;99.90;;;;;;5136681;27;20482;-77
2022/01/14 05:54:28;;;;;;;40.97;18.05;;;5.70;99.90;;;;;;5119569;27;20039;-77
2022/01/14 05:56:54;;;;;;;40.38;19.35;;;5.70;99.90;;;;;;5136687;27;20401;-78
2022/01/14 05:59:19;;;;;;;38.05;18.08;;;5.90;99.90;;;;;;5155164;27;20091;-77
2022/01/14 06:01:45;;;;;;;41.85;19.33;;;5.70;99.90;;;;;;5135769;27;20091;-78
2022/01/14 06:04:11;;;;;;;39.28;18.70;;;5.70;99.90;;;;;;5135846;27;20043;-78
2022/01/14 06:06:37;;;;;;;33.85;17.73;;;5.70;99.90;;;;;;5136616;27;20062;-77
2022/01/14 06:09:04;;;;;;;36.45;18.52;;;5.70;99.90;;;;;;5154246;27;20066;-77
2022/01/14 06:11:30;;;;;;;41.80;19.58;;;5.70;99.90;;;;;;5155086;27;20049;-77
2022/01/14 06:13:57;;;;;;;36.47;19.15;;;5.70;99.90;;;;;;5136945;27;20046;-78
2022/01/14 06:16:23;;;;;;;44.20;19.45;;;5.70;99.90;;;;;;5135582;27;20529;-78
2022/01/14 06:18:49;;;;;;;40.13;17.98;;;5.70;99.90;;;;;;5154656;27;20071;-77
2022/01/14 06:21:15;;;;;;;43.60;19.23;;;5.70;99.90;;;;;;5136380;27;20137;-77
2022/01/14 06:23:40;;;;;;;36.70;17.83;;;5.80;99.90;;;;;;5135511;27;20125;-77
2022/01/14 06:26:07;;;;;;;36.60;19.27;;;5.80;99.90;;;;;;5155094;27;20042;-78
2022/01/14 06:28:33;;;;;;;33.90;17.73;;;5.80;99.90;;;;;;5136752;27;20116;-77
2022/01/14 06:30:59;;;;;;;39.15;17.52;;;5.80;99.90;;;;;;5135674;27;20050;-78
2022/01/14 06:33:25;;;;;;;28.25;15.13;;;5.80;99.90;;;;;;5136146;27;20500;-77
2022/01/14 06:35:51;;;;;;;35.17;17.10;;;5.80;99.90;;;;;;5136179;27;20090;-77
2022/01/14 06:38:18;;;;;;;41.25;16.77;;;5.90;99.90;;;;;;5135860;27;20035;-78
2022/01/14 06:40:46;;;;;;;32.45;16.45;;;5.90;99.90;;;;;;5136646;27;20046;-78
2022/01/14 06:43:13;;;;;;;35.88;13.77;;;6.00;99.90;;;;;;5135486;27;20053;-77
2022/01/14 06:45:39;;;;;;;40.50;14.57;;;5.90;99.90;;;;;;5136009;27;20084;-77
2022/01/14 06:48:05;;;;;;;32.47;15.32;;;6.00;99.90;;;;;;5135684;27;20072;-76
2022/01/14 06:50:31;;;;;;;31.42;15.77;;;6.00;99.90;;;;;;5135368;27;20504;-77
2022/01/14 06:52:56;;;;;;;26.85;14.98;;;6.00;99.90;;;;;;5136456;27;20042;-77
2022/01/14 06:55:22;;;;;;;25.63;14.00;;;6.00;99.90;;;;;;5154643;27;20043;-77
2022/01/14 06:57:48;;;;;;;36.50;14.27;;;6.10;99.90;;;;;;5135395;27;20393;-77
2022/01/14 07:00:16;;;;;;;28.35;14.02;;;6.00;99.90;;;;;;5154778;27;20034;-77
2022/01/14 07:02:42;;;;;;;24.52;13.57;;;6.10;99.90;;;;;;5154403;27;20046;-77
2022/01/14 07:05:09;;;;;;;33.60;14.45;;;6.10;99.90;;;;;;5134915;27;20473;-77
2022/01/14 07:07:35;;;;;;;30.80;13.73;;;6.10;99.90;;;;;;5154706;27;20074;-77
2022/01/14 07:10:01;;;;;;;39.17;14.00;;;6.10;99.90;;;;;;5154598;27;20076;-77
2022/01/14 07:12:33;;;;;;;34.10;14.18;;;6.10;99.90;;;;;;5134863;27;20058;-78
2022/01/14 07:15:00;;;;;;;26.42;13.50;;;6.10;99.90;;;;;;5136128;27;20050;-77
2022/01/14 07:17:27;;;;;;;30.45;14.63;;;6.10;99.90;;;;;;5139345;27;20485;-77
2022/01/14 07:19:57;;;;;;;32.20;13.40;;;6.10;99.90;;;;;;5138853;27;20038;-77
2022/01/14 07:22:22;;;;;;;29.88;13.77;;;6.10;99.90;;;;;;5139946;27;20046;-77
2022/01/14 07:24:49;;;;;;;30.52;13.48;;;6.10;99.90;;;;;;5122537;27;20049;-76
2022/01/14 07:27:15;;;;;;;33.15;13.85;;;6.10;99.90;;;;;;5157104;27;20050;-77
2022/01/14 07:29:41;;;;;;;32.00;13.40;;;6.20;99.90;;;;;;5122409;27;20043;-77
2022/01/14 07:32:07;;;;;;;33.85;13.52;;;6.20;99.90;;;;;;5138572;27;20042;-77
2022/01/14 07:34:34;;;;;;;28.02;12.85;;;6.10;99.90;;;;;;5121473;27;20043;-77
2022/01/14 07:37:00;;;;;;;28.38;11.35;;;6.10;99.90;;;;;;5139350;27;20061;-77
2022/01/14 07:39:25;;;;;;;35.45;12.70;;;6.10;99.90;;;;;;5139360;27;20038;-77
2022/01/14 07:41:52;;;;;;;30.52;11.82;;;6.10;99.90;;;;;;5138824;27;20414;-77
2022/01/14 07:44:18;;;;;;;32.90;11.55;;;6.10;99.90;;;;;;5139102;27;20043;-77
2022/01/14 07:46:44;;;;;;;31.85;12.77;;;6.20;99.90;;;;;;5134557;27;20062;-77
2022/01/14 07:49:10;;;;;;;34.35;11.60;;;6.20;99.90;;;;;;5135252;27;20055;-77
2022/01/14 07:51:36;;;;;;;31.15;11.73;;;6.20;99.90;;;;;;5135454;27;20072;-76
2022/01/14 07:54:05;;;;;;;30.95;11.98;;;6.20;99.90;;;;;;5135028;27;20096;-77
2022/01/14 07:56:36;;;;;;;22.77;10.70;;;6.20;99.90;;;;;;5135371;27;20055;-76
2022/01/14 07:59:04;;;;;;;26.40;9.95;;;6.20;99.90;;;;;;5135457;27;20039;-75
2022/01/14 08:01:32;;;;;;;30.58;11.10;;;6.20;99.90;;;;;;5134750;27;20103;-76
2022/01/14 08:03:59;;;;;;;25.48;10.32;;;6.20;99.90;;;;;;5135307;27;20047;-76
2022/01/14 08:06:26;;;;;;;26.92;9.63;;;6.30;99.90;;;;;;5135326;27;20054;-76
2022/01/14 08:08:52;;;;;;;24.60;9.40;;;6.20;99.90;;;;;;5135861;27;20035;-76
2022/01/14 08:11:18;;;;;;;22.08;8.85;;;6.20;99.90;;;;;;5135072;27;20486;-76
2022/01/14 08:13:44;;;;;;;29.67;9.73;;;6.30;99.90;;;;;;5135154;27;20051;-76
2022/01/14 08:16:09;;;;;;;32.53;11.05;;;6.30;99.90;;;;;;5134311;27;20051;-76
2022/01/14 08:18:36;;;;;;;21.33;8.60;;;6.30;99.90;;;;;;5134798;27;20071;-76
2022/01/14 08:21:04;;;;;;;33.30;9.35;;;6.30;99.90;;;;;;5133998;27;20047;-76
2022/01/14 08:23:32;;;;;;;26.83;8.65;;;6.30;99.90;;;;;;5134717;27;20040;-76
2022/01/14 08:25:58;;;;;;;21.15;8.43;;;6.30;99.90;;;;;;5134193;27;20482;-76
2022/01/14 08:28:25;;;;;;;33.08;9.90;;;6.30;99.90;;;;;;5134783;27;20054;-76
2022/01/14 08:30:50;;;;;;;28.23;9.35;;;6.30;99.90;;;;;;5134948;27;20086;-76
2022/01/14 08:33:17;;;;;;;24.65;8.55;;;6.30;99.90;;;;;;5134272;27;20086;-76
2022/01/14 08:35:43;;;;;;;27.35;10.05;;;6.30;99.90;;;;;;5134134;27;20518;-76
2022/01/14 08:38:09;;;;;;;21.38;8.70;;;6.40;99.90;;;;;;5134290;27;20035;-76
2022/01/14 08:40:35;;;;;;;29.05;10.07;;;6.40;99.90;;;;;;5134626;27;20145;-76
2022/01/14 08:43:00;;;;;;;30.65;10.73;;;6.30;99.90;;;;;;5133486;27;20045;-76
2022/01/14 08:45:27;;;;;;;25.42;8.82;;;6.40;99.90;;;;;;5135058;27;20394;-76
2022/01/14 08:47:54;;;;;;;24.83;10.90;;;6.40;99.90;;;;;;5137717;27;20394;-76
2022/01/14 08:50:26;;;;;;;29.08;9.52;;;6.40;99.90;;;;;;5155096;27;20067;-76
2022/01/14 08:52:52;;;;;;;16.90;7.57;;;6.40;99.90;;;;;;5137918;27;20409;-76
2022/01/14 08:55:19;;;;;;;24.35;9.18;;;6.50;99.90;;;;;;5137574;27;20038;-76
2022/01/14 08:57:45;;;;;;;30.05;8.98;;;6.50;99.90;;;;;;5136260;27;20050;-76
2022/01/14 09:00:13;;;;;;;25.98;7.55;;;6.50;99.90;;;;;;5137476;27;20051;-76
2022/01/14 09:02:39;;;;;;;25.05;7.55;;;6.50;99.90;;;;;;5137215;27;20543;-76
2022/01/14 09:05:05;;;;;;;27.08;7.85;;;6.50;99.90;;;;;;5136787;27;20039;-76
2022/01/14 09:07:31;;;;;;;21.17;7.63;;;6.50;99.90;;;;;;5120160;27;20117;-76
2022/01/14 09:09:57;;;;;;;22.73;6.85;;;6.60;99.90;;;;;;5120014;27;20179;-76
2022/01/14 09:12:23;;;;;;;19.48;7.10;;;6.60;99.90;;;;;;5136443;27;20134;-76
2022/01/14 09:14:49;;;;;;;19.90;6.15;;;6.60;99.90;;;;;;5137201;27;20043;-76
2022/01/14 09:17:17;;;;;;;19.38;5.88;;;6.70;99.90;;;;;;5136891;27;20042;-76
2022/01/14 09:19:44;;;;;;;28.70;7.35;;;6.70;99.90;;;;;;5135460;27;20046;-76
2022/01/14 09:22:15;;;;;;;18.98;6.72;;;6.70;99.90;;;;;;5137004;27;20043;-76
2022/01/14 09:24:42;;;;;;;23.90;6.70;;;6.70;99.90;;;;;;5119888;27;20039;-76
2022/01/14 09:27:08;;;;;;;17.05;6.03;;;6.80;99.90;;;;;;5135899;27;20042;-76
2022/01/14 09:29:34;;;;;;;20.60;5.43;;;6.80;99.90;;;;;;5136991;27;20134;-76
2022/01/14 09:31:59;;;;;;;15.85;5.35;;;6.80;99.90;;;;;;5154750;27;20452;-76
2022/01/14 09:34:25;;;;;;;20.88;5.95;;;6.90;99.90;;;;;;5154930;27;20529;-76
2022/01/14 09:36:51;;;;;;;22.38;5.40;;;6.90;99.90;;;;;;5119440;27;20078;-75
2022/01/14 09:39:17;;;;;;;15.63;4.60;;;6.90;99.90;;;;;;5135209;27;20121;-76
2022/01/14 09:41:43;;;;;;;15.73;4.40;;;6.90;99.90;;;;;;5136184;27;20494;-76
2022/01/14 09:44:09;;;;;;;15.07;4.28;;;7.00;99.90;;;;;;5136743;27;20049;-76
2022/01/14 09:46:34;;;;;;;14.93;4.45;;;7.00;99.90;;;;;;5135559;27;20047;-76
2022/01/14 09:49:00;;;;;;;16.45;4.43;;;7.10;99.90;;;;;;5136134;27;20047;-76
2022/01/14 09:51:26;;;;;;;13.38;4.68;;;7.10;99.90;;;;;;5155315;27;20038;-76
2022/01/14 09:53:52;;;;;;;15.05;4.07;;;7.10;99.90;;;;;;5135735;27;20051;-76
2022/01/14 09:56:20;;;;;;;11.70;3.53;;;7.10;99.90;;;;;;5155173;27;20039;-76
2022/01/14 09:58:48;;;;;;;17.50;5.03;;;7.20;99.90;;;;;;5136592;27;20038;-76
2022/01/14 10:01:23;;;;;;;11.77;3.33;;;7.20;99.90;;;;;;5118986;27;20070;-75
2022/01/14 10:03:49;;;;;;;14.20;4.55;;;7.20;99.90;;;;;;5119217;27;20117;-75
2022/01/14 10:06:51;;;;;;;16.92;4.38;;;7.20;99.90;;;;;;5136387;27;20081;-76
2022/01/14 10:09:23;;;;;;;12.25;3.65;;;7.30;99.90;;;;;;5135741;27;20051;-76
2022/01/14 10:12:01;;;;;;;12.95;4.53;;;7.30;99.90;;;;;;5155023;27;20046;-76
2022/01/14 10:14:27;;;;;;;11.38;3.10;;;7.30;99.90;;;;;;5135745;27;20055;-76
2022/01/14 10:16:55;;;;;;;15.40;3.38;;;7.30;99.90;;;;;;5136358;27;20035;-75
2022/01/14 10:19:30;;;;;;;18.35;3.33;;;7.40;99.90;;;;;;5118971;27;20046;-76
2022/01/14 10:21:57;;;;;;;12.23;2.80;;;7.40;99.90;;;;;;5135732;27;20039;-76
2022/01/14 10:24:25;;;;;;;7.68;2.40;;;7.40;99.90;;;;;;5136130;27;20047;-75
2022/01/14 10:26:56;;;;;;;17.23;3.50;;;7.40;99.90;;;;;;5136597;27;20111;-76
2022/01/14 10:29:37;;;;;;;16.17;3.95;;;7.40;99.90;;;;;;5153831;27;20057;-76
2022/01/14 10:32:06;;;;;;;23.60;3.60;;;7.40;99.90;;;;;;5136337;27;20090;-76
2022/01/14 10:34:32;;;;;;;11.60;3.08;;;7.40;99.90;;;;;;5115763;28;20047;-76
2022/01/14 10:37:31;;;;;;;17.60;3.35;;;7.40;99.90;;;;;;5126260;27;20042;-75
2022/01/14 10:39:57;;;;;;;13.55;3.40;;;7.50;99.90;;;;;;5116199;27;20103;-75
2022/01/14 10:42:24;;;;;;;17.40;3.13;;;7.40;99.90;;;;;;5134660;27;20042;-76
2022/01/14 10:44:50;;;;;;;11.77;3.03;;;7.40;99.90;;;;;;5119310;27;20126;-76
2022/01/14 10:47:21;;;;;;;18.30;3.15;;;7.50;99.90;;;;;;5135659;27;20438;-75
2022/01/14 10:49:50;;;;;;;16.48;3.30;;;7.50;99.90;;;;;;5136361;27;20054;-76
2022/01/14 10:52:17;;;;;;;16.10;3.05;;;7.50;99.90;;;;;;5140157;27;20133;-76
2022/01/14 10:54:46;;;;;;;18.73;3.35;;;7.50;99.90;;;;;;5158437;27;20043;-76
2022/01/14 10:57:26;;;;;;;8.50;2.55;;;7.50;99.90;;;;;;5122039;27;20058;-76
2022/01/14 11:00:12;;;;;;;17.50;3.42;;;7.50;99.90;;;;;;5138995;27;20102;-76
2022/01/14 11:02:42;;;;;;;13.93;2.78;;;7.50;99.90;;;;;;5125366;27;20049;-76
2022/01/14 11:05:12;;;;;;;16.40;3.20;;;7.50;99.90;;;;;;5138869;27;20050;-76
2022/01/14 11:07:39;;;;;;;22.35;3.40;;;7.50;99.90;;;;;;5139661;27;20042;-76
2022/01/14 11:10:26;;;;;;;13.98;3.53;;;7.50;99.90;;;;;;5139356;27;20046;-76
2022/01/14 11:12:55;;;;;;;19.92;4.13;;;7.50;99.90;;;;;;5158423;27;20119;-76
2022/01/14 11:15:23;;;;;;;18.10;3.97;;;7.50;99.90;;;;;;5139845;27;20424;-76
2022/01/14 11:17:52;;;;;;;11.30;2.97;;;7.40;99.90;;;;;;5138086;27;20514;-76
2022/01/14 11:20:29;;;;;;;10.50;3.45;;;7.40;99.90;;;;;;5138390;27;20046;-76
2022/01/14 11:25:48;;;;;;;18.17;3.83;;;7.40;99.90;;;;;;5138631;27;20046;-75
2022/01/14 11:28:18;;;;;;;7.38;2.70;;;7.40;99.90;;;;;;5139716;27;20050;-76
2022/01/14 11:30:44;;;;;;;20.48;3.03;;;7.40;99.90;;;;;;5157709;27;20042;-76
2022/01/14 11:33:12;;;;;;;14.18;3.47;;;7.40;99.90;;;;;;5138097;27;20126;-75
2022/01/14 11:35:38;;;;;;;13.48;3.80;;;7.50;99.90;;;;;;5139076;27;20061;-76
2022/01/14 11:38:37;;;;;;;19.17;3.83;;;7.50;99.90;;;;;;5138820;27;20042;-76
2022/01/14 11:41:04;;;;;;;17.25;3.78;;;7.50;99.90;;;;;;5155530;27;20065;-75
2022/01/14 11:43:54;;;;;;;19.33;3.80;;;7.50;99.90;;;;;;5157511;27;20047;-75
2022/01/14 11:46:32;;;;;;;14.60;3.67;;;7.50;99.90;;;;;;5137982;27;20107;-76
2022/01/14 11:48:59;;;;;;;17.23;3.45;;;7.50;99.90;;;;;;5156714;27;20497;-76
2022/01/14 11:51:25;;;;;;;18.65;4.20;;;7.50;99.90;;;;;;5133691;27;20511;-76
2022/01/14 11:53:53;;;;;;;14.98;2.80;;;7.50;99.90;;;;;;5133697;27;20072;-75
2022/01/14 11:56:31;;;;;;;12.13;3.78;;;7.50;99.90;;;;;;5139006;27;20046;-75
2022/01/14 11:59:22;;;;;;;17.60;3.80;;;7.50;99.90;;;;;;5130729;27;20054;-75
2022/01/14 12:01:51;;;;;;;18.25;3.97;;;7.50;99.90;;;;;;5116743;27;20047;-75
2022/01/14 12:04:17;;;;;;;17.67;4.18;;;7.50;99.90;;;;;;5136831;27;20440;-76
2022/01/14 12:06:54;;;;;;;20.23;4.82;;;7.50;99.90;;;;;;5156785;27;20126;-75
2022/01/14 12:09:24;;;;;;;16.45;4.30;;;7.50;99.90;;;;;;5138747;27;20051;-76
2022/01/14 12:12:22;;;;;;;21.35;5.18;;;7.50;99.90;;;;;;5157135;27;20046;-76
2022/01/14 12:14:56;;;;;;;25.30;4.90;;;7.60;99.90;;;;;;5117184;27;20055;-76
2022/01/14 12:17:40;;;;;;;18.52;4.47;;;7.60;99.90;;;;;;5138766;27;20077;-75
2022/01/14 12:20:17;;;;;;;10.82;3.22;;;7.60;99.90;;;;;;5157013;27;20102;-76
2022/01/14 12:23:07;;;;;;;17.00;3.30;;;7.60;99.90;;;;;;5156012;27;20065;-75
2022/01/14 12:25:41;;;;;;;16.02;3.75;;;7.60;99.90;;;;;;5157118;27;20054;-76
2022/01/14 12:28:21;;;;;;;13.75;4.38;;;7.60;99.90;;;;;;5137578;27;20066;-76
2022/01/14 12:31:02;;;;;;;16.23;3.60;;;7.60;99.90;;;;;;5138057;27;20084;-76
2022/01/14 12:33:40;;;;;;;19.67;4.50;;;7.60;99.90;;;;;;5137965;27;20482;-76
2022/01/14 12:36:15;;;;;;;16.45;4.18;;;7.60;99.90;;;;;;5155401;27;20129;-75
2022/01/14 12:38:42;;;;;;;25.05;4.97;;;7.60;99.90;;;;;;5117706;27;20078;-76
2022/01/14 12:41:26;;;;;;;14.88;4.10;;;7.60;99.90;;;;;;5136004;27;20054;-76
2022/01/14 12:43:55;;;;;;;20.30;4.20;;;7.60;99.90;;;;;;5116637;27;20051;-76
2022/01/14 12:46:53;;;;;;;19.48;4.22;;;7.60;99.90;;;;;;5135395;27;20394;-76
2022/01/14 12:49:24;;;;;;;20.67;4.43;;;7.60;99.90;;;;;;5133687;27;20051;-76
2022/01/14 12:52:00;;;;;;;15.20;3.25;;;7.60;99.90;;;;;;5137876;27;20051;-76
2022/01/14 12:54:31;;;;;;;26.52;4.18;;;7.60;99.90;;;;;;5156405;27;20050;-75
2022/01/14 12:56:57;;;;;;;22.98;4.30;;;7.60;99.90;;;;;;5136869;27;20167;-76
2022/01/14 12:59:24;;;;;;;19.48;4.88;;;7.70;99.90;;;;;;5156157;27;20130;-76
2022/01/14 13:01:52;;;;;;;23.15;3.83;;;7.70;99.90;;;;;;5156057;27;20051;-75
2022/01/14 13:04:20;;;;;;;20.88;4.63;;;7.60;99.90;;;;;;5155217;27;20034;-75
2022/01/14 13:06:51;;;;;;;23.15;4.95;;;7.70;99.90;;;;;;5116845;27;20046;-76
2022/01/14 13:09:21;;;;;;;22.52;4.40;;;7.70;99.90;;;;;;5116895;27;20043;-76
2022/01/14 13:12:06;;;;;;;24.10;3.83;;;7.70;99.90;;;;;;5134609;27;20042;-76
2022/01/14 13:14:38;;;;;;;20.40;5.18;;;7.70;99.90;;;;;;5099170;27;20120;-77